Cody Hateboer

Olheiro - Twente
7 Nov 2027
Domingo
Processo

Personalidade

Adaptabilidade (3) Ambição (9) Controvérsia (2) Lealdade (18) Pressão (17) Profissionalismo (15) Espírito Esportivo (9) Temperamento (12)

Perfil

Estilo de Treinamento Democrático
Licença Continental Pro
Determinação 9
Gestão de Pessoas 9
Motivação 9
Disciplina 14
Satisfação no Trabalho
100%
Fadiga
0%
Função Olheiro
Salário 92.2K p/s
Contrato 14.03.2029

Desempenho

Comportamento Bom
Eficácia do Treinamento
49%
Desenvolvimento do Jogador
50%
Prevenção de Lesões
35%
Implementação Tática
55%

Eventos Recentes

Aniversário 28d atrás

Monitorando agora

109
Jogador Clube Status Habilidade Confiança Observado Última observação Último voto
Cheveyo Tsawa Club Brugge Ativo 124 / 128 40% 1 30.08.2027 -
Adrian Skogmar Malmo FF Ativo 115 / 137 40% 1 30.08.2027 -
Luiz Júnior Betis Ativo 157 / 146 40% 1 25.08.2027 -
Tobe Leysen Lokeren Ativo 116 / 115 40% 1 25.08.2027 -
Gabriel Brazão Santos Ativo 146 / 137 40% 4 23.08.2027 -
Lois Mignolet Racing Genk Ativo 155 / 149 40% 1 23.08.2027 -
Patrick Schulte Columbus Crew Ativo 126 / 132 40% 2 20.08.2027 -
Diego Enríquez Sporting Cristal Ativo 126 / 126 40% 1 20.08.2027 -
Sascha Britschgi Fiorentina Ativo 120 / 124 40% 1 19.08.2027 -
Finn Jeltsch VfB Stuttgart Ativo 143 / 152 40% 1 19.08.2027 -
Kjell Peersman KAA Gent Ativo 137 / 135 40% 1 18.08.2027 -
Melker Ellborg Sunderland Ativo 132 / 123 40% 1 18.08.2027 -
Daniel Peretz Bayern Munich Ativo 140 / 150 40% 1 14.08.2027 -
Mile Svilar AS Roma Ativo 158 / 165 40% 1 14.08.2027 -
Elia Caprile Cagliari Ativo 156 / 156 40% 1 12.08.2027 -
Đorđe Petrović Bournemouth Ativo 147 / 144 40% 1 12.08.2027 -
Edoardo Corvi Parma Ativo 133 / 130 40% 1 11.08.2027 -
Harrison Armstrong Everton Ativo 137 / 145 40% 1 09.08.2027 -
Gady Beyuku Modena Ativo 126 / 113 40% 1 09.08.2027 -
Lorenzo Palmisani Hellas Verona Ativo 133 / 140 40% 1 07.08.2027 -
Vladislav Torop CSKA Moscow Ativo 118 / 122 40% 1 07.08.2027 -
Gonzalo Crettaz NEC Rejeitado 140 / 141 40% 3 03.08.2027 Rejeitar
Matheus Cunha Cruzeiro Ativo 122 / 141 40% 1 03.08.2027 -
Manuel Roffo Libertad Ativo 135 / 133 40% 2 02.08.2027 -
Josh Griffiths West Bromwich Albion Ativo 131 / 134 40% 1 02.08.2027 -
Daniil Khudyakov Sturm Graz Ativo 126 / 133 40% 3 31.07.2027 -
Felipe Zenobio Tigre Ativo 120 / 133 40% 2 31.07.2027 -
Nazareno Roselli Defensa y Justicia Ativo 120 / 130 40% 2 30.07.2027 -
Lautaro Morales Lanús Ativo 145 / 123 40% 3 30.07.2027 -
Rabby Nzingoula West Bromwich Albion Ativo 125 / 119 40% 1 30.07.2027 -
Diego Romero Universitario Ativo 133 / 128 40% 1 30.07.2027 -
Kazuki Fujita Avispa Fukuoka Ativo 136 / 118 40% 3 29.07.2027 -
Mauro Silveira Junior Ativo 125 / 129 40% 1 29.07.2027 -
Denys Smetana Inhulets Ativo 81 / 110 40% 2 26.07.2027 -
Thiago Helguera Braga Ativo 121 / 122 40% 1 26.07.2027 -
Andrija Bulatović RC Lens Ativo 130 / 140 40% 1 25.07.2027 -
Beau Reus Waasland-Beveren Ativo 123 / 131 40% 3 23.07.2027 -
Ştefan Târnovanu FCSB Ativo 121 / 137 40% 1 23.07.2027 -
Felipe Parra Tigres Ativo 124 / 133 40% 2 21.07.2027 -
Sebastián Caballero Barranquilla Ativo 84 / 89 40% 1 21.07.2027 -
Musa Danjuma Hatayspor Ativo 83 / 105 40% 1 21.07.2027 -
Martin Kern Puskas Akademia Ativo 111 / 121 40% 1 20.07.2027 -
Vincent Burlet Cracovia Ativo 106 / 99 40% 1 19.07.2027 -
Harley Mills Peterborough United Ativo 100 / 95 40% 3 15.07.2027 -
Rafik el Arguioui Utrecht Ativo 107 / 125 40% 1 15.07.2027 -
Elie N'Gatta Sochaux Ativo 104 / 96 40% 2 14.07.2027 -
Federico Ravaglia Bologna Ativo 145 / 146 40% 2 14.07.2027 -
Almugera Kabar Borussia Dortmund Ativo 128 / 117 40% 1 14.07.2027 -
Viktor Baier Viktoria Plzen Ativo 133 / 117 40% 2 09.07.2027 -
Raúl Rangel Guadalajara Ativo 127 / 146 40% 2 08.07.2027 -
Pavlo Isenko Universitatea Craiova Ativo 130 / 138 40% 1 07.07.2027 -
Martim Cunha Porto Ativo 97 / 112 40% 2 06.07.2027 -
Valente Pierani Estudiantes Ativo 106 / 106 40% 1 06.07.2027 -
Nikola Čavlina Dinamo Zagreb Ativo 115 / 132 40% 1 05.07.2027 -
Sławomir Abramowicz Jagiellonia Ativo 142 / 127 40% 2 30.06.2027 -
Gabriel Grando Cruzeiro Ativo 139 / 115 40% 2 30.06.2027 -
Yuma Obata Avispa Fukuoka Ativo 116 / 114 40% 2 26.06.2027 -
Dylan Gorosito Boca Juniors Ativo 105 / 118 40% 1 26.06.2027 -
Tobias Lawal Racing Genk Ativo 120 / 135 40% 1 22.06.2027 -
Kirill Glebov CSKA Moscow Ativo 137 / 119 40% 1 21.06.2027 -
Noah Streit CF Montreal Ativo 103 / 111 40% 1 21.06.2027 -
Răzvan Sava Sporting CP Ativo 121 / 122 40% 1 13.06.2027 -
Yassine Khalifi Charleroi Ativo 103 / 117 40% 1 12.06.2027 -
Marius Courcoul Olympique de Marseille Ativo 109 / 123 40% 1 11.06.2027 -
Ottó Hindrich Legia Ativo 108 / 108 40% 2 10.06.2027 -
Mauricio Amaro Atlanta United FC Ativo 139 / 114 40% 6 09.06.2027 -
Heorhii Yermakov Metalist Ativo 122 / 121 40% 1 09.06.2027 -
Nick Viergever Zwolle Perdido 117 / 126 62% 1 07.06.2027 Aprovar
Igor Nikić Mirandés Ativo 126 / 118 40% 1 01.06.2027 -
Sam Tickle Wigan Athletic Ativo 133 / 132 40% 2 30.01.2027 -
Bilal Bayazıt Kayserispor Ativo 137 / 119 40% 4 28.01.2027 -
Justin Hammel Grasshopper Ativo 114 / 130 40% 1 24.01.2027 -
Albert Posiadała Zenit Ativo 129 / 140 40% 1 23.01.2027 -
Pascal Loretz Luzern Ativo 134 / 122 40% 1 23.01.2027 -
Dani Díaz Real Sociedad Ativo 108 / 125 40% 1 23.01.2027 -
Eden Batshuayi Charleroi Ativo 100 / 116 40% 1 22.01.2027 -
Tomoki Hayakawa Kashima Antlers Ativo 151 / 131 40% 2 20.01.2027 -
Luis Ingolotti Olympique de Marseille Ativo 114 / 131 40% 1 20.01.2027 -
Thomas Perrin Chamois Niortais Ativo 132 / 134 40% 2 19.01.2027 -
Bernardes Benfica Ativo 97 / 105 40% 1 19.01.2027 -
Kyriani Sabbe Club Brugge Ativo 122 / 130 40% 4 18.01.2027 -
Santiago Grella Unión de Santa Fe Ativo 120 / 112 40% 1 18.01.2027 -
Breno Bidon Corinthians Ativo 145 / 145 40% 1 14.01.2027 -
Tylel Tati AJ Auxerre Ativo 125 / 126 40% 1 13.01.2027 -
Pablo Campos Levante Ativo 123 / 141 40% 1 08.01.2027 -
Ľubomír Belko Viking Ativo 140 / 112 40% 1 07.01.2027 -
Álex Marchal Real Sociedad Ativo 102 / 127 40% 1 06.01.2027 -
Andrew Flamengo Ativo 122 / 140 40% 1 05.01.2027 -
Brent Gabriel Zulte Waregem Ativo 130 / 123 40% 1 01.01.2027 -
Zach Mitchell Charlton Athletic Ativo 95 / 95 40% 1 31.08.2026 Mais informações
Anthony Patterson Wrexham Ativo 127 / 124 40% 1 29.08.2026 -
Radek Vítek Middlesbrough Ativo 134 / 134 40% 1 29.08.2026 -
Mathijs Marschalk Vitesse Ativo 96 / 101 40% 1 26.08.2026 -
Mbekezeli Mbokazi Chicago Fire Ativo 111 / 122 40% 1 25.08.2026 -
Marvin Keller Young Boys Ativo 140 / 135 40% 1 24.08.2026 -
Anthony Racioppi Sion Ativo 120 / 130 40% 2 23.08.2026 -
Rome-Jayden Owusu-Oduro Ajax Ativo 127 / 125 40% 1 22.08.2026 -
Owen Wolff Austin FC Ativo 102 / 128 40% 1 22.08.2026 -
Joaquin Seys Club Brugge Ativo 120 / 132 40% 1 22.08.2026 -
Dinko Horkaš Al Wasl Ativo 112 / 120 40% 1 21.08.2026 -
Jerónimo Russo Newell's Old Boys Ativo 88 / 119 40% 1 21.08.2026 -
Santiago Fernández Talleres Ativo 128 / 107 40% 1 19.08.2026 -
Elías Báez Atlanta United FC Ativo 107 / 111 40% 1 18.08.2026 -
Lucas Agazzi Benfica Ativo 114 / 122 40% 1 18.08.2026 -
Iñaki Peña Panathinaikos Ativo 134 / 122 40% 1 12.08.2026 -
Tilman Palacios America de Cali Ativo 104 / 105 40% 1 04.08.2026 -
Fernando Tapia Club America Ativo 111 / 125 40% 1 03.08.2026 -
Dmytro Riznyk Shakhtar Ativo 133 / 153 40% 1 03.08.2026 -
Myron van Brederode KV Mechelen Ativo 118 / 122 40% 1 02.08.2026 -